createdAt,value
2022-10-28T00:06:07.360Z,55.10
2022-10-28T00:08:35.117Z,45.88
2022-10-28T00:11:11.087Z,46.10
2022-10-28T00:13:39.192Z,42.45
2022-10-28T00:16:09.522Z,44.42
2022-10-28T00:18:37.521Z,43.50
2022-10-28T00:21:08.273Z,44.65
2022-10-28T00:23:35.797Z,42.35
2022-10-28T00:26:13.657Z,43.30
2022-10-28T00:28:43.680Z,43.42
2022-10-28T00:31:13.458Z,43.95
2022-10-28T00:33:41.472Z,44.92
2022-10-28T00:36:21.012Z,44.28
2022-10-28T00:38:50.516Z,46.97
2022-10-28T00:41:26.292Z,40.40
2022-10-28T00:43:59.776Z,41.00
2022-10-28T00:46:35.234Z,38.40
2022-10-28T00:49:19.031Z,39.00
2022-10-28T00:51:49.606Z,38.42
2022-10-28T00:54:18.706Z,40.40
2022-10-28T00:56:51.581Z,38.97
2022-10-28T00:59:27.501Z,38.35
2022-10-28T01:01:55.274Z,37.35
2022-10-28T01:04:25.495Z,39.10
2022-10-28T01:06:53.176Z,33.90
2022-10-28T01:09:20.587Z,39.75
2022-10-28T01:11:51.546Z,38.83
2022-10-28T01:14:47.019Z,38.50
2022-10-28T01:17:55.641Z,36.45
2022-10-28T01:20:41.623Z,38.35
2022-10-28T01:23:26.386Z,39.40
2022-10-28T01:25:59.631Z,38.38
2022-10-28T01:28:45.250Z,42.75
2022-10-28T01:31:39.825Z,40.70
2022-10-28T01:34:48.272Z,40.10
2022-10-28T01:37:40.836Z,37.58
2022-10-28T01:40:10.816Z,36.63
2022-10-28T01:42:49.920Z,37.15
2022-10-28T01:45:35.142Z,39.08
2022-10-28T01:48:09.357Z,35.28
2022-10-28T01:50:38.806Z,36.13
2022-10-28T01:53:14.666Z,37.85
2022-10-28T01:55:45.920Z,38.08
2022-10-28T01:58:17.761Z,37.42
2022-10-28T02:00:46.550Z,37.45
2022-10-28T02:03:14.093Z,42.42
2022-10-28T02:05:46.728Z,42.63
2022-10-28T02:08:19.982Z,41.50
2022-10-28T02:11:14.946Z,43.97
2022-10-28T02:14:25.712Z,40.97
2022-10-28T02:16:59.117Z,40.65
2022-10-28T02:19:43.778Z,37.35
2022-10-28T02:22:20.853Z,38.97
2022-10-28T02:24:56.072Z,39.33
2022-10-28T02:27:31.516Z,44.45
2022-10-28T02:30:07.348Z,47.97
2022-10-28T02:32:40.600Z,45.40
2022-10-28T02:35:13.573Z,49.72
2022-10-28T02:37:46.463Z,51.35
2022-10-28T02:40:24.402Z,47.83
2022-10-28T02:42:56.169Z,44.90
2022-10-28T02:45:40.417Z,57.22
2022-10-28T02:48:13.007Z,62.25
2022-10-28T02:50:46.257Z,61.15
2022-10-28T02:56:02.916Z,65.32
2022-10-28T02:58:38.307Z,60.13
2022-10-28T03:01:06.265Z,52.95
2022-10-28T03:03:33.798Z,56.20
2022-10-28T03:06:01.227Z,54.17
2022-10-28T03:08:28.383Z,56.15
2022-10-28T03:10:55.891Z,57.03
2022-10-28T03:13:23.192Z,53.45
2022-10-28T03:15:50.621Z,51.80
2022-10-28T03:18:17.807Z,51.55
2022-10-28T03:20:45.327Z,50.05
2022-10-28T03:23:12.462Z,49.90
2022-10-28T03:25:40.013Z,46.67
2022-10-28T03:28:07.168Z,45.95
2022-10-28T03:30:34.711Z,43.33
2022-10-28T03:33:01.917Z,46.15
2022-10-28T03:35:29.356Z,43.30
2022-10-28T03:37:56.497Z,45.00
2022-10-28T03:40:24.047Z,42.83
2022-10-28T03:42:51.467Z,47.47
2022-10-28T03:45:19.414Z,46.42
2022-10-28T03:47:46.831Z,50.17
2022-10-28T03:50:14.293Z,53.83
2022-10-28T03:52:43.622Z,51.80
2022-10-28T03:55:11.402Z,50.20
2022-10-28T03:57:38.573Z,52.10
2022-10-28T04:00:06.962Z,51.67
2022-10-28T04:02:49.172Z,53.05
2022-10-28T04:05:16.907Z,46.25
2022-10-28T04:07:44.292Z,39.65
2022-10-28T04:10:11.859Z,44.75
2022-10-28T04:12:40.117Z,53.85
2022-10-28T04:15:07.959Z,45.58
2022-10-28T04:17:35.312Z,44.80
2022-10-28T04:20:02.838Z,47.33
2022-10-28T04:22:30.047Z,46.47
2022-10-28T04:24:57.508Z,50.38
2022-10-28T04:27:24.723Z,48.67
2022-10-28T04:29:52.254Z,52.20
2022-10-28T04:32:19.408Z,42.25
2022-10-28T04:34:47.028Z,46.15
2022-10-28T04:37:17.001Z,47.72
2022-10-28T04:39:48.275Z,44.80
2022-10-28T04:42:15.713Z,48.78
2022-10-28T04:44:43.244Z,46.85
2022-10-28T04:47:10.562Z,44.28
2022-10-28T04:49:38.899Z,48.78
2022-10-28T04:52:12.095Z,49.55
2022-10-28T04:54:42.567Z,45.22
2022-10-28T04:57:09.850Z,38.80
2022-10-28T04:59:37.667Z,34.28
2022-10-28T05:02:05.027Z,32.58
2022-10-28T05:04:32.727Z,30.95
2022-10-28T05:06:59.920Z,35.35
2022-10-28T05:09:27.428Z,33.75
2022-10-28T05:11:54.592Z,41.17
2022-10-28T05:14:22.041Z,42.40
2022-10-28T05:16:49.242Z,42.00
2022-10-28T05:19:16.703Z,43.72
2022-10-28T05:21:43.898Z,36.15
2022-10-28T05:24:11.453Z,30.77
2022-10-28T05:26:38.607Z,28.73
2022-10-28T05:29:06.123Z,26.42
2022-10-28T05:31:33.307Z,29.90
2022-10-28T05:34:00.684Z,26.55
2022-10-28T05:36:27.910Z,24.67
2022-10-28T05:38:55.353Z,27.52
2022-10-28T05:41:23.388Z,35.88
2022-10-28T05:43:51.973Z,31.83
2022-10-28T05:46:19.112Z,38.33
2022-10-28T05:48:46.568Z,28.10
2022-10-28T05:51:13.855Z,28.15
2022-10-28T05:53:42.348Z,27.00
2022-10-28T05:56:11.043Z,27.25
2022-10-28T05:58:38.814Z,26.83
2022-10-28T06:01:08.308Z,27.98
2022-10-28T06:03:39.028Z,27.90
2022-10-28T06:06:06.653Z,23.08
2022-10-28T06:08:34.047Z,27.50
2022-10-28T06:11:00.342Z,40.22
2022-10-28T06:13:27.824Z,30.00
2022-10-28T06:15:56.550Z,36.95
2022-10-28T06:18:24.088Z,40.35
2022-10-28T06:20:56.348Z,41.25
2022-10-28T06:23:25.182Z,34.40
2022-10-28T06:26:10.706Z,32.33
2022-10-28T06:28:38.273Z,40.78
2022-10-28T06:31:07.991Z,43.10
2022-10-28T06:33:35.793Z,42.90
2022-10-28T06:36:03.683Z,41.22
2022-10-28T06:38:31.146Z,31.88
2022-10-28T06:40:58.541Z,42.15
2022-10-28T06:43:26.309Z,45.75
2022-10-28T06:45:55.769Z,43.38
2022-10-28T06:48:25.037Z,44.95
2022-10-28T06:50:56.149Z,40.80
2022-10-28T06:53:24.657Z,47.88
2022-10-28T06:55:58.723Z,43.60
2022-10-28T06:58:26.925Z,48.28
2022-10-28T07:00:56.504Z,55.78
2022-10-28T07:03:23.561Z,54.17
2022-10-28T07:05:51.747Z,57.30
2022-10-28T07:08:19.027Z,54.10
2022-10-28T07:10:55.430Z,60.17
2022-10-28T07:13:23.476Z,60.40
2022-10-28T07:15:55.318Z,65.30
2022-10-28T07:18:23.632Z,63.13
2022-10-28T07:20:51.999Z,83.57
2022-10-28T07:23:19.724Z,83.88
2022-10-28T07:25:56.978Z,72.55
2022-10-28T07:28:26.012Z,72.05
2022-10-28T07:30:53.418Z,76.60
2022-10-28T07:33:23.810Z,68.00
2022-10-28T07:35:51.321Z,69.82
2022-10-28T07:38:18.567Z,75.47
2022-10-28T07:40:46.036Z,74.80
2022-10-28T07:43:13.307Z,70.00
2022-10-28T07:45:40.896Z,69.63
2022-10-28T07:48:09.858Z,68.97
2022-10-28T07:50:37.377Z,64.47
2022-10-28T07:53:04.663Z,61.00
2022-10-28T07:55:32.371Z,61.53
2022-10-28T07:57:59.642Z,64.05
2022-10-28T08:00:27.147Z,64.63
2022-10-28T08:02:58.143Z,61.83
2022-10-28T08:05:27.068Z,60.63
2022-10-28T08:07:54.565Z,59.83
2022-10-28T08:10:22.339Z,58.08
2022-10-28T08:12:49.691Z,55.53
2022-10-28T08:15:18.546Z,52.67
2022-10-28T08:17:51.726Z,48.22
2022-10-28T08:20:19.926Z,45.67
2022-10-28T08:22:47.168Z,44.78
2022-10-28T08:25:14.717Z,43.58
2022-10-28T08:27:42.491Z,39.35
2022-10-28T08:30:10.725Z,37.65
2022-10-28T08:32:41.047Z,36.33
2022-10-28T08:35:09.165Z,35.78
2022-10-28T08:37:36.588Z,39.83
2022-10-28T08:40:05.203Z,40.83
2022-10-28T08:42:44.880Z,35.83
2022-10-28T08:45:43.078Z,35.92
2022-10-28T08:48:41.275Z,21.52
2022-10-28T08:51:16.417Z,15.60
2022-10-28T08:53:51.481Z,15.13
2022-10-28T08:56:34.051Z,15.43
2022-10-28T08:59:05.806Z,16.42
2022-10-28T09:01:46.737Z,15.65
2022-10-28T09:04:40.467Z,21.20
2022-10-28T09:07:20.372Z,26.17
2022-10-28T09:09:50.159Z,24.85
2022-10-28T09:15:54.501Z,20.92
2022-10-28T09:18:51.593Z,19.45
2022-10-28T09:21:26.834Z,22.67
2022-10-28T09:23:59.638Z,19.85
2022-10-28T09:26:49.742Z,15.57
2022-10-28T09:32:30.140Z,14.98
2022-10-28T09:40:40.602Z,16.83
2022-10-28T09:49:05.438Z,13.27
2022-10-28T09:52:01.990Z,15.52
2022-10-28T09:54:36.028Z,8.93
2022-10-28T09:59:49.601Z,10.05
2022-10-28T10:05:18.789Z,11.13
2022-10-28T10:10:52.038Z,10.27
2022-10-28T10:13:24.344Z,9.88
2022-10-28T10:15:57.396Z,10.93
2022-10-28T10:24:03.344Z,10.77
2022-10-28T10:26:33.174Z,11.30
2022-10-28T10:31:49.815Z,12.68
2022-10-28T10:34:25.838Z,15.32
2022-10-28T10:36:56.500Z,12.15
2022-10-28T10:39:30.281Z,11.30
2022-10-28T10:44:43.726Z,10.45
2022-10-28T10:47:13.613Z,11.40
2022-10-28T10:49:41.402Z,9.75
2022-10-28T10:55:08.373Z,8.38
2022-10-28T10:57:37.444Z,8.93
2022-10-28T11:00:05.542Z,8.80
2022-10-28T11:02:39.893Z,8.35
2022-10-28T11:05:10.122Z,8.30
2022-10-28T11:10:32.537Z,8.77
2022-10-28T11:13:25.792Z,8.63
2022-10-28T11:16:06.528Z,6.57
2022-10-28T11:25:02.313Z,5.72
2022-10-28T11:30:39.150Z,1.55
2022-10-28T11:36:43.391Z,1.80
2022-10-28T11:39:25.721Z,1.48
2022-10-28T11:42:23.602Z,1.63
2022-10-28T11:45:06.438Z,1.83
2022-10-28T11:50:48.442Z,1.70
2022-10-28T11:56:17.835Z,1.42
2022-10-28T12:01:57.093Z,2.03
2022-10-28T12:04:33.174Z,1.40
2022-10-28T12:10:54.971Z,1.50
2022-10-28T12:13:37.794Z,1.50
2022-10-28T12:16:38.381Z,1.65
2022-10-28T12:19:23.632Z,1.60
2022-10-28T12:27:42.391Z,1.40
2022-10-28T12:33:33.679Z,1.83
2022-10-28T12:36:03.892Z,1.50
2022-10-28T12:38:43.244Z,1.55
2022-10-28T12:41:16.684Z,1.85
2022-10-28T12:49:28.151Z,2.65
2022-10-28T12:52:01.253Z,1.70
2022-10-28T12:54:52.720Z,1.48
2022-10-28T12:57:23.630Z,2.15
2022-10-28T13:00:01.591Z,4.65
2022-10-28T13:02:35.819Z,1.60
2022-10-28T13:05:05.138Z,1.40
2022-10-28T13:14:15.232Z,1.95
2022-10-28T13:17:07.728Z,1.95
2022-10-28T13:22:45.804Z,3.60
2022-10-28T13:25:43.958Z,4.38
2022-10-28T13:28:21.879Z,6.03
2022-10-28T13:31:01.995Z,6.65
2022-10-28T13:33:31.328Z,2.97
2022-10-28T13:36:18.878Z,3.90
2022-10-28T13:39:00.190Z,8.25
2022-10-28T13:44:27.308Z,4.80
2022-10-28T13:47:01.919Z,4.50
2022-10-28T13:49:35.693Z,4.30
2022-10-28T13:55:00.357Z,5.35
2022-10-28T13:57:35.738Z,5.22
2022-10-28T14:02:42.163Z,5.10
2022-10-28T14:05:13.643Z,6.15
2022-10-28T14:08:06.209Z,5.85
2022-10-28T14:10:41.508Z,3.80
2022-10-28T14:13:22.978Z,3.20
2022-10-28T14:16:14.219Z,2.50
2022-10-28T14:18:44.636Z,1.63
2022-10-28T14:21:13.107Z,1.92
2022-10-28T14:23:40.486Z,1.80
2022-10-28T14:26:08.055Z,2.22
2022-10-28T14:28:35.605Z,2.38
2022-10-28T14:31:21.374Z,2.50
2022-10-28T14:33:56.329Z,2.15
2022-10-28T14:36:44.328Z,2.47
2022-10-28T14:39:36.286Z,1.95
2022-10-28T14:42:15.486Z,2.03
2022-10-28T14:45:30.099Z,2.25
2022-10-28T14:53:57.919Z,3.90
2022-10-28T14:56:28.597Z,3.88
2022-10-28T14:59:05.312Z,3.88
2022-10-28T15:01:54.307Z,3.40
2022-10-28T15:04:22.700Z,3.47
2022-10-28T15:09:36.796Z,3.13
2022-10-28T15:12:11.206Z,3.35
2022-10-28T15:14:45.476Z,2.72
2022-10-28T15:17:20.725Z,2.38
2022-10-28T15:19:51.715Z,2.90
2022-10-28T15:22:29.567Z,3.25
2022-10-28T15:25:17.594Z,3.13
2022-10-28T15:27:48.127Z,3.60
2022-10-28T15:30:23.533Z,4.18
2022-10-28T15:35:42.712Z,3.20
2022-10-28T15:41:23.967Z,4.45
2022-10-28T15:49:39.945Z,8.15
2022-10-28T15:55:26.669Z,8.40
2022-10-28T16:04:23.898Z,11.95
2022-10-28T16:06:58.337Z,14.10
2022-10-28T16:09:34.782Z,16.58
2022-10-28T16:12:15.634Z,19.73
2022-10-28T16:14:45.944Z,23.65
2022-10-28T16:17:24.951Z,24.42
2022-10-28T16:19:59.865Z,24.60
2022-10-28T16:22:29.580Z,25.88
2022-10-28T16:24:57.716Z,21.77
2022-10-28T16:27:29.517Z,26.35
2022-10-28T16:29:59.068Z,28.40
2022-10-28T16:32:37.703Z,41.55
2022-10-28T16:38:00.293Z,31.95
2022-10-28T16:43:19.963Z,31.83
2022-10-28T16:45:48.717Z,42.22
2022-10-28T16:48:18.235Z,38.75
2022-10-28T16:50:54.043Z,39.25
2022-10-28T16:53:22.933Z,50.47
2022-10-28T16:58:35.716Z,55.22
2022-10-28T17:03:48.401Z,73.07
2022-10-28T17:06:16.801Z,67.25
2022-10-28T17:11:33.205Z,75.55
2022-10-28T17:14:01.557Z,79.07
2022-10-28T17:16:29.454Z,73.15
2022-10-28T17:18:57.465Z,97.20
2022-10-28T17:21:25.883Z,78.05
2022-10-28T17:23:54.084Z,78.32
2022-10-28T17:26:22.512Z,75.65
2022-10-28T17:28:53.681Z,88.28
2022-10-28T17:31:24.867Z,78.97
2022-10-28T17:33:56.970Z,71.82
2022-10-28T17:39:15.321Z,59.13
2022-10-28T17:41:44.935Z,63.30
2022-10-28T17:44:12.847Z,61.95
2022-10-28T17:46:40.433Z,47.88
2022-10-28T17:51:54.705Z,41.50
2022-10-28T17:56:51.598Z,55.83
2022-10-28T17:59:19.904Z,56.00
2022-10-28T18:01:47.673Z,54.83
2022-10-28T18:04:16.595Z,37.58
2022-10-28T18:06:44.105Z,49.42
2022-10-28T18:09:15.156Z,45.17
2022-10-28T18:14:28.313Z,84.32
2022-10-28T18:16:55.805Z,61.90
2022-10-28T18:22:08.583Z,35.35
2022-10-28T18:24:36.382Z,24.05
2022-10-28T18:29:48.870Z,52.92
2022-10-28T18:32:16.696Z,70.72
2022-10-28T18:34:44.525Z,62.08
2022-10-28T18:37:12.185Z,41.05
2022-10-28T18:42:24.785Z,59.30
2022-10-28T18:44:58.751Z,84.30
2022-10-28T18:47:26.454Z,43.75
2022-10-28T18:49:54.699Z,37.45
2022-10-28T18:52:22.316Z,28.90
2022-10-28T18:54:49.805Z,14.13
2022-10-28T18:57:17.608Z,26.58
2022-10-28T19:00:16.898Z,13.82
2022-10-28T19:02:33.427Z,18.58
2022-10-28T19:05:00.958Z,31.10
2022-10-28T19:07:28.824Z,50.53
2022-10-28T19:12:44.922Z,85.65
2022-10-28T19:15:16.605Z,62.97
2022-10-28T19:17:44.335Z,92.00
2022-10-28T19:20:12.238Z,71.25
2022-10-28T19:22:39.646Z,76.72
2022-10-28T19:25:07.713Z,79.40
2022-10-28T19:27:35.287Z,79.78
2022-10-28T19:32:48.119Z,78.43
2022-10-28T19:35:16.003Z,83.82
2022-10-28T19:37:43.448Z,109.55
2022-10-28T19:40:12.501Z,115.80
2022-10-28T19:42:40.370Z,103.68
2022-10-28T19:45:08.928Z,100.57
2022-10-28T19:47:36.379Z,93.30
2022-10-28T19:50:04.158Z,147.68
2022-10-28T19:52:31.547Z,82.10
2022-10-28T19:54:59.203Z,50.88
2022-10-28T19:57:26.633Z,57.95
2022-10-28T20:02:44.108Z,42.67
2022-10-28T20:05:11.745Z,117.07
2022-10-28T20:07:39.143Z,55.92
2022-10-28T20:10:07.413Z,79.85
2022-10-28T20:12:34.973Z,86.30
2022-10-28T20:15:02.599Z,86.90
2022-10-28T20:17:30.027Z,82.18
2022-10-28T20:19:57.598Z,50.70
2022-10-28T20:22:24.923Z,47.33
2022-10-28T20:24:52.505Z,93.03
2022-10-28T20:27:19.858Z,106.50
2022-10-28T20:29:47.189Z,105.32
2022-10-28T20:32:16.865Z,125.22
2022-10-28T20:34:44.524Z,156.40
2022-10-28T20:39:58.355Z,127.45
2022-10-28T20:42:26.978Z,82.75
2022-10-28T20:44:54.537Z,64.25
2022-10-28T20:47:21.759Z,73.72
2022-10-28T20:49:49.389Z,78.35
2022-10-28T20:52:16.898Z,68.82
2022-10-28T20:54:44.518Z,71.05
2022-10-28T20:57:11.849Z,47.13
2022-10-28T20:59:39.433Z,40.55
2022-10-28T21:04:51.968Z,41.35
2022-10-28T21:07:19.276Z,40.33
2022-10-28T21:09:47.063Z,35.13
2022-10-28T21:12:15.008Z,38.85
2022-10-28T21:14:42.633Z,36.47
2022-10-28T21:17:09.944Z,38.42
2022-10-28T21:25:07.483Z,44.97
2022-10-28T21:27:34.860Z,50.75
2022-10-28T21:32:46.739Z,59.00
2022-10-28T21:35:15.682Z,53.70
2022-10-28T21:37:43.301Z,51.67
2022-10-28T21:40:11.488Z,58.67
2022-10-28T21:42:38.806Z,49.70
2022-10-28T21:45:07.914Z,42.92
2022-10-28T21:47:35.335Z,41.30
2022-10-28T21:50:02.827Z,45.08
2022-10-28T21:52:30.078Z,48.22
2022-10-28T21:54:57.706Z,44.30
2022-10-28T21:57:30.417Z,45.92
2022-10-28T22:02:42.585Z,77.13
2022-10-28T22:05:09.895Z,82.30
2022-10-28T22:10:22.163Z,89.43
2022-10-28T22:12:49.809Z,96.35
2022-10-28T22:15:17.203Z,90.93
2022-10-28T22:17:44.478Z,87.35
2022-10-28T22:20:12.042Z,52.92
2022-10-28T22:22:39.485Z,52.42
2022-10-28T22:25:09.520Z,40.30
2022-10-28T22:36:01.808Z,78.15
2022-10-28T22:38:30.448Z,64.40
2022-10-28T22:41:29.284Z,60.20
2022-10-28T22:43:59.302Z,57.80
2022-10-28T22:46:29.598Z,62.35
2022-10-28T22:48:57.517Z,59.90
2022-10-28T22:51:25.102Z,56.97
2022-10-28T22:53:52.644Z,53.30
2022-10-28T22:56:22.438Z,44.88
2022-10-28T22:58:56.392Z,46.33
2022-10-28T23:01:25.655Z,51.83
2022-10-28T23:06:39.507Z,36.42
2022-10-28T23:09:07.226Z,37.13
2022-10-28T23:11:36.959Z,45.95
2022-10-28T23:14:04.450Z,45.15
2022-10-28T23:16:31.782Z,44.70
2022-10-28T23:21:46.148Z,49.53
2022-10-28T23:29:30.182Z,52.63
2022-10-28T23:34:41.944Z,52.17
2022-10-28T23:37:09.387Z,53.75
2022-10-28T23:39:36.673Z,52.55
2022-10-28T23:44:48.882Z,40.85
2022-10-28T23:47:16.252Z,40.33
2022-10-28T23:49:43.722Z,38.67
2022-10-28T23:52:11.158Z,48.85
2022-10-28T23:57:23.257Z,40.00
